EWG99VN EDDL-LFLL
Flight info
| Callsign | EWG99VN |
|---|---|
| Flight time | 1h 7m |
| Altitude | 24000 |
| Route | MODRU7Z/05R MODRU Z283 LNO/N0445F330 Z283 SOPOK DCT ROUSY DCT GTQ DCT POGOL DCT LASAT DCT MOROK Z24 BOLGI T14 MILPA |
| Aircraft | A319/M-SDE3FGHIRWY/LB1 |
Departure
| Time | 2026-05-05 18:26 |
|---|---|
| Airport | Düsseldorf Airport (EDDL) |
Arrival
| Time | 2026-05-05 19:33 |
|---|---|
| Airport | Lyon Saint-Exupéry Airport (LFLL) |
| Time | Latitude | Longitude | Altitude | Speed | Heading |
|---|---|---|---|---|---|
| 2026-05-05 17:48 | 51.28155 | 6.76733 | 118 ft | 0 kts | 276° |
| 2026-05-05 18:16 | 51.28155 | 6.76734 | 118 ft | 0 kts | 276° |
| 2026-05-05 18:16 | 51.28153 | 6.76754 | 115 ft | 3 kts | 281° |
| 2026-05-05 18:16 | 51.28148 | 6.76785 | 114 ft | 3 kts | 295° |
| 2026-05-05 18:16 | 51.28138 | 6.76812 | 117 ft | 3 kts | 327° |
| 2026-05-05 18:17 | 51.28125 | 6.76820 | 114 ft | 1 kts | 16° |
| 2026-05-05 18:17 | 51.28123 | 6.76820 | 114 ft | 0 kts | 17° |
| 2026-05-05 18:20 | 51.28127 | 6.76821 | 114 ft | 2 kts | 17° |
| 2026-05-05 18:20 | 51.28161 | 6.76833 | 116 ft | 6 kts | 7° |
| 2026-05-05 18:20 | 51.28214 | 6.76843 | 118 ft | 10 kts | 6° |
| 2026-05-05 18:20 | 51.28276 | 6.76841 | 115 ft | 10 kts | 336° |
| 2026-05-05 18:21 | 51.28325 | 6.76783 | 116 ft | 9 kts | 322° |
| 2026-05-05 18:21 | 51.28376 | 6.76720 | 118 ft | 8 kts | 322° |
| 2026-05-05 18:21 | 51.28414 | 6.76654 | 117 ft | 9 kts | 287° |
| 2026-05-05 18:21 | 51.28384 | 6.76554 | 118 ft | 12 kts | 233° |
| 2026-05-05 18:22 | 51.28331 | 6.76443 | 116 ft | 11 kts | 233° |
| 2026-05-05 18:22 | 51.28282 | 6.76340 | 116 ft | 13 kts | 232° |
| 2026-05-05 18:22 | 51.28231 | 6.76233 | 116 ft | 12 kts | 232° |
| 2026-05-05 18:22 | 51.28193 | 6.76141 | 116 ft | 9 kts | 252° |
| 2026-05-05 18:23 | 51.28204 | 6.76079 | 114 ft | 7 kts | 309° |
| 2026-05-05 18:23 | 51.28227 | 6.76052 | 118 ft | 1 kts | 327° |
| 2026-05-05 18:24 | 51.28230 | 6.76048 | 118 ft | 2 kts | 327° |
| 2026-05-05 18:25 | 51.28260 | 6.76018 | 118 ft | 7 kts | 327° |
| 2026-05-05 18:25 | 51.28295 | 6.75979 | 116 ft | 10 kts | 323° |
| 2026-05-05 18:25 | 51.28335 | 6.75984 | 116 ft | 7 kts | 50° |
| 2026-05-05 18:25 | 51.28418 | 6.76156 | 115 ft | 48 kts | 52° |
| 2026-05-05 18:26 | 51.28775 | 6.76905 | 118 ft | 117 kts | 52° |
| 2026-05-05 18:26 | 51.29339 | 6.78101 | 466 ft | 138 kts | 50° |
| 2026-05-05 18:26 | 51.29904 | 6.79316 | 1225 ft | 135 kts | 50° |
| 2026-05-05 18:26 | 51.30486 | 6.80537 | 1769 ft | 146 kts | 51° |
| 2026-05-05 18:27 | 51.31145 | 6.81923 | 2105 ft | 167 kts | 52° |
| 2026-05-05 18:27 | 51.31886 | 6.83491 | 2419 ft | 190 kts | 53° |
| 2026-05-05 18:27 | 51.32737 | 6.85289 | 2771 ft | 215 kts | 53° |
| 2026-05-05 18:27 | 51.33687 | 6.87300 | 3296 ft | 238 kts | 54° |
| 2026-05-05 18:28 | 51.36284 | 6.90810 | 4842 ft | 266 kts | 14° |
| 2026-05-05 18:28 | 51.38127 | 6.91298 | 5814 ft | 271 kts | 9° |
| 2026-05-05 18:28 | 51.40019 | 6.91660 | 6769 ft | 276 kts | 359° |
| 2026-05-05 18:29 | 51.41898 | 6.90940 | 7637 ft | 282 kts | 333° |
| 2026-05-05 18:29 | 51.43418 | 6.88961 | 8527 ft | 285 kts | 307° |
| 2026-05-05 18:29 | 51.44262 | 6.86099 | 9448 ft | 287 kts | 281° |
| 2026-05-05 18:29 | 51.44257 | 6.82918 | 10312 ft | 288 kts | 256° |
| 2026-05-05 18:30 | 51.43396 | 6.80016 | 11020 ft | 296 kts | 232° |
| 2026-05-05 18:30 | 51.41984 | 6.77472 | 11387 ft | 316 kts | 226° |
| 2026-05-05 18:30 | 51.40433 | 6.74830 | 11774 ft | 332 kts | 226° |
| 2026-05-05 18:30 | 51.38825 | 6.72112 | 12445 ft | 339 kts | 226° |
| 2026-05-05 18:31 | 51.37197 | 6.69353 | 13172 ft | 343 kts | 226° |
| 2026-05-05 18:31 | 51.35556 | 6.66555 | 13871 ft | 347 kts | 226° |
| 2026-05-05 18:31 | 51.33906 | 6.63725 | 14655 ft | 350 kts | 226° |
| 2026-05-05 18:31 | 51.32231 | 6.60848 | 15488 ft | 355 kts | 226° |
| 2026-05-05 18:32 | 51.30538 | 6.57934 | 16278 ft | 360 kts | 226° |
| 2026-05-05 18:32 | 51.28824 | 6.54989 | 16991 ft | 364 kts | 226° |
| 2026-05-05 18:32 | 51.27091 | 6.52018 | 17655 ft | 366 kts | 226° |
| 2026-05-05 18:32 | 51.25346 | 6.49029 | 18262 ft | 370 kts | 226° |
| 2026-05-05 18:33 | 51.23585 | 6.46015 | 18823 ft | 373 kts | 225° |
| 2026-05-05 18:33 | 51.21803 | 6.42974 | 19469 ft | 377 kts | 225° |
| 2026-05-05 18:33 | 51.20009 | 6.39920 | 20122 ft | 380 kts | 225° |
| 2026-05-05 18:33 | 51.18192 | 6.36827 | 20740 ft | 384 kts | 225° |
| 2026-05-05 18:34 | 51.16976 | 6.34762 | 21127 ft | 386 kts | 225° |
| 2026-05-05 18:34 | 51.15132 | 6.31634 | 21694 ft | 389 kts | 225° |
| 2026-05-05 18:34 | 51.12668 | 6.27454 | 22376 ft | 393 kts | 225° |
| 2026-05-05 18:34 | 51.10785 | 6.24261 | 22917 ft | 397 kts | 225° |
| 2026-05-05 18:35 | 51.08886 | 6.21051 | 23486 ft | 400 kts | 225° |
| 2026-05-05 18:35 | 51.06968 | 6.17816 | 23932 ft | 404 kts | 225° |
| 2026-05-05 18:35 | 51.05661 | 6.15612 | 24239 ft | 406 kts | 225° |
| 2026-05-05 18:35 | 51.03721 | 6.12342 | 24678 ft | 408 kts | 225° |
| 2026-05-05 18:36 | 51.01671 | 6.09207 | 25097 ft | 410 kts | 217° |
| 2026-05-05 18:36 | 50.99335 | 6.06616 | 25511 ft | 411 kts | 210° |
| 2026-05-05 18:36 | 50.96894 | 6.04219 | 25942 ft | 413 kts | 210° |
| 2026-05-05 18:36 | 50.94445 | 6.01810 | 26356 ft | 416 kts | 210° |
| 2026-05-05 18:37 | 50.91947 | 5.99475 | 26771 ft | 418 kts | 207° |
| 2026-05-05 18:37 | 50.89393 | 5.97242 | 27196 ft | 420 kts | 206° |
| 2026-05-05 18:37 | 50.86792 | 5.95065 | 27609 ft | 423 kts | 205° |
| 2026-05-05 18:37 | 50.84178 | 5.92916 | 28021 ft | 425 kts | 205° |
| 2026-05-05 18:38 | 50.81542 | 5.90748 | 28425 ft | 428 kts | 205° |
| 2026-05-05 18:38 | 50.78903 | 5.88540 | 28818 ft | 430 kts | 206° |
| 2026-05-05 18:38 | 50.76295 | 5.86320 | 29198 ft | 433 kts | 206° |
| 2026-05-05 18:38 | 50.73614 | 5.84007 | 29585 ft | 435 kts | 206° |
| 2026-05-05 18:39 | 50.70984 | 5.81721 | 29948 ft | 438 kts | 206° |
| 2026-05-05 18:39 | 50.68312 | 5.79396 | 30314 ft | 440 kts | 206° |
| 2026-05-05 18:39 | 50.65620 | 5.77063 | 30736 ft | 443 kts | 206° |
| 2026-05-05 18:39 | 50.62898 | 5.74778 | 31134 ft | 443 kts | 202° |
| 2026-05-05 18:40 | 50.60029 | 5.73082 | 31600 ft | 439 kts | 193° |
| 2026-05-05 18:40 | 50.57050 | 5.72153 | 32160 ft | 433 kts | 184° |
| 2026-05-05 18:40 | 50.54063 | 5.71985 | 32726 ft | 428 kts | 175° |
| 2026-05-05 18:40 | 50.51111 | 5.72468 | 33275 ft | 424 kts | 171° |
| 2026-05-05 18:41 | 50.48200 | 5.73039 | 33821 ft | 421 kts | 171° |
| 2026-05-05 18:41 | 50.45294 | 5.73595 | 34289 ft | 419 kts | 171° |
| 2026-05-05 18:41 | 50.42396 | 5.74141 | 34682 ft | 420 kts | 172° |
| 2026-05-05 18:41 | 50.39495 | 5.74687 | 35045 ft | 421 kts | 172° |
| 2026-05-05 18:42 | 50.36583 | 5.75235 | 35399 ft | 422 kts | 172° |
| 2026-05-05 18:42 | 50.33658 | 5.75787 | 35742 ft | 424 kts | 172° |
| 2026-05-05 18:42 | 50.30729 | 5.76344 | 36099 ft | 425 kts | 172° |
| 2026-05-05 18:42 | 50.27790 | 5.76905 | 36415 ft | 426 kts | 173° |
| 2026-05-05 18:43 | 50.24861 | 5.77605 | 36701 ft | 427 kts | 167° |
| 2026-05-05 18:43 | 50.21992 | 5.78820 | 36823 ft | 428 kts | 164° |
| 2026-05-05 18:43 | 50.16278 | 5.81382 | 36838 ft | 427 kts | 164° |
| 2026-05-05 18:44 | 50.10560 | 5.83946 | 36838 ft | 428 kts | 164° |
| 2026-05-05 18:44 | 50.04839 | 5.86489 | 36833 ft | 428 kts | 164° |
| 2026-05-05 18:45 | 49.99144 | 5.89001 | 36837 ft | 429 kts | 164° |
| 2026-05-05 18:45 | 49.93397 | 5.91534 | 36819 ft | 429 kts | 164° |
| 2026-05-05 18:46 | 49.87651 | 5.94062 | 36813 ft | 429 kts | 165° |
| 2026-05-05 18:46 | 49.81907 | 5.96575 | 36818 ft | 430 kts | 165° |
| 2026-05-05 18:47 | 49.76151 | 5.99089 | 36811 ft | 430 kts | 165° |
| 2026-05-05 18:47 | 49.70390 | 6.01610 | 36811 ft | 430 kts | 165° |
| 2026-05-05 18:48 | 49.64628 | 6.04123 | 36807 ft | 431 kts | 165° |
| 2026-05-05 18:48 | 49.58859 | 6.06633 | 36808 ft | 431 kts | 165° |
| 2026-05-05 18:49 | 49.53084 | 6.09144 | 36816 ft | 432 kts | 165° |
| 2026-05-05 18:49 | 49.47450 | 6.12297 | 36821 ft | 433 kts | 152° |
| 2026-05-05 18:50 | 49.42600 | 6.17779 | 36815 ft | 434 kts | 142° |
| 2026-05-05 18:50 | 49.37901 | 6.23614 | 36815 ft | 434 kts | 143° |
| 2026-05-05 18:51 | 49.33119 | 6.29244 | 36811 ft | 432 kts | 152° |
| 2026-05-05 18:51 | 49.30364 | 6.31003 | 36819 ft | 429 kts | 166° |
| 2026-05-05 18:51 | 49.27458 | 6.32036 | 36823 ft | 429 kts | 168° |
| 2026-05-05 18:52 | 49.21616 | 6.33990 | 36816 ft | 430 kts | 168° |
| 2026-05-05 18:52 | 49.15763 | 6.35916 | 36822 ft | 431 kts | 168° |
| 2026-05-05 18:53 | 49.09906 | 6.37849 | 36827 ft | 431 kts | 168° |
| 2026-05-05 18:53 | 49.04045 | 6.39791 | 36829 ft | 431 kts | 168° |
| 2026-05-05 18:54 | 48.98183 | 6.41731 | 36830 ft | 431 kts | 169° |
| 2026-05-05 18:54 | 48.92352 | 6.43653 | 36832 ft | 432 kts | 169° |
| 2026-05-05 18:55 | 48.86484 | 6.45584 | 36833 ft | 431 kts | 169° |
| 2026-05-05 18:55 | 48.80622 | 6.47502 | 36831 ft | 431 kts | 169° |
| 2026-05-05 18:56 | 48.74749 | 6.49423 | 36834 ft | 431 kts | 169° |
| 2026-05-05 18:56 | 48.68885 | 6.51332 | 36834 ft | 431 kts | 169° |
| 2026-05-05 18:57 | 48.63021 | 6.53242 | 36830 ft | 431 kts | 169° |
| 2026-05-05 18:57 | 48.57155 | 6.55147 | 36835 ft | 431 kts | 169° |
| 2026-05-05 18:58 | 48.51296 | 6.57043 | 36834 ft | 431 kts | 169° |
| 2026-05-05 18:58 | 48.45436 | 6.58941 | 36840 ft | 431 kts | 169° |
| 2026-05-05 18:59 | 48.39574 | 6.60832 | 36843 ft | 431 kts | 169° |
| 2026-05-05 18:59 | 48.33693 | 6.62643 | 36843 ft | 430 kts | 175° |
| 2026-05-05 19:00 | 48.27727 | 6.62933 | 36852 ft | 429 kts | 180° |
| 2026-05-05 19:00 | 48.21757 | 6.63110 | 36856 ft | 429 kts | 180° |
| 2026-05-05 19:01 | 48.15788 | 6.63282 | 36862 ft | 429 kts | 180° |
| 2026-05-05 19:01 | 48.09816 | 6.63458 | 36798 ft | 428 kts | 180° |
| 2026-05-05 19:02 | 48.06840 | 6.63551 | 36290 ft | 428 kts | 180° |
| 2026-05-05 19:02 | 48.03864 | 6.63649 | 35698 ft | 428 kts | 180° |
| 2026-05-05 19:02 | 48.00886 | 6.63743 | 35087 ft | 428 kts | 180° |
| 2026-05-05 19:02 | 47.97903 | 6.63833 | 34468 ft | 429 kts | 180° |
| 2026-05-05 19:03 | 47.94919 | 6.63920 | 33833 ft | 429 kts | 180° |
| 2026-05-05 19:03 | 47.91931 | 6.64007 | 33066 ft | 429 kts | 180° |
| 2026-05-05 19:03 | 47.88986 | 6.64093 | 32287 ft | 429 kts | 180° |
| 2026-05-05 19:03 | 47.85986 | 6.64181 | 31419 ft | 431 kts | 180° |
| 2026-05-05 19:04 | 47.83016 | 6.64269 | 31001 ft | 423 kts | 180° |
| 2026-05-05 19:04 | 47.80089 | 6.64355 | 30442 ft | 418 kts | 180° |
| 2026-05-05 19:04 | 47.77196 | 6.64442 | 29887 ft | 414 kts | 180° |
| 2026-05-05 19:04 | 47.74333 | 6.64528 | 29287 ft | 409 kts | 180° |
| 2026-05-05 19:05 | 47.71514 | 6.64613 | 28753 ft | 403 kts | 180° |
| 2026-05-05 19:05 | 47.68732 | 6.64699 | 28216 ft | 397 kts | 180° |
| 2026-05-05 19:05 | 47.65986 | 6.64783 | 27687 ft | 392 kts | 180° |
| 2026-05-05 19:05 | 47.63272 | 6.64864 | 27164 ft | 387 kts | 180° |
| 2026-05-05 19:06 | 47.60596 | 6.64941 | 26649 ft | 383 kts | 180° |
| 2026-05-05 19:06 | 47.57945 | 6.65016 | 26143 ft | 379 kts | 180° |
| 2026-05-05 19:06 | 47.55316 | 6.65091 | 25641 ft | 376 kts | 180° |
| 2026-05-05 19:06 | 47.52713 | 6.65170 | 25168 ft | 373 kts | 180° |
| 2026-05-05 19:07 | 47.50133 | 6.65246 | 24692 ft | 370 kts | 180° |
| 2026-05-05 19:07 | 47.47562 | 6.65322 | 24239 ft | 368 kts | 180° |
| 2026-05-05 19:07 | 47.45007 | 6.65397 | 23784 ft | 366 kts | 180° |
| 2026-05-05 19:07 | 47.42471 | 6.65472 | 23343 ft | 363 kts | 180° |
| 2026-05-05 19:08 | 47.39954 | 6.65546 | 22925 ft | 363 kts | 180° |
| 2026-05-05 19:08 | 47.37404 | 6.65563 | 22853 ft | 368 kts | 182° |
| 2026-05-05 19:08 | 47.34836 | 6.65489 | 22874 ft | 370 kts | 183° |
| 2026-05-05 19:08 | 47.32261 | 6.65367 | 22874 ft | 370 kts | 184° |
| 2026-05-05 19:09 | 47.29614 | 6.65227 | 22872 ft | 370 kts | 184° |
| 2026-05-05 19:09 | 47.27045 | 6.65101 | 22909 ft | 370 kts | 183° |
| 2026-05-05 19:09 | 47.24488 | 6.64869 | 22892 ft | 367 kts | 189° |
| 2026-05-05 19:09 | 47.22028 | 6.63997 | 22436 ft | 362 kts | 201° |
| 2026-05-05 19:10 | 47.19775 | 6.62408 | 22006 ft | 358 kts | 212° |
| 2026-05-05 19:10 | 47.17790 | 6.60187 | 21927 ft | 360 kts | 221° |
| 2026-05-05 19:10 | 47.15929 | 6.57717 | 21837 ft | 360 kts | 221° |
| 2026-05-05 19:10 | 47.14066 | 6.55265 | 21759 ft | 360 kts | 221° |
| 2026-05-05 19:11 | 47.12194 | 6.52816 | 21511 ft | 359 kts | 221° |
| 2026-05-05 19:11 | 47.10333 | 6.50383 | 21244 ft | 358 kts | 221° |
| 2026-05-05 19:11 | 47.08377 | 6.48134 | 20981 ft | 356 kts | 211° |
| 2026-05-05 19:11 | 47.06204 | 6.46404 | 20726 ft | 355 kts | 208° |
| 2026-05-05 19:12 | 47.04052 | 6.44720 | 20470 ft | 354 kts | 208° |
| 2026-05-05 19:12 | 47.01879 | 6.43025 | 20218 ft | 353 kts | 208° |
| 2026-05-05 19:12 | 46.99710 | 6.41337 | 19963 ft | 352 kts | 208° |
| 2026-05-05 19:12 | 46.97550 | 6.39655 | 19715 ft | 351 kts | 208° |
| 2026-05-05 19:13 | 46.95393 | 6.37974 | 19466 ft | 350 kts | 208° |
| 2026-05-05 19:13 | 46.93247 | 6.36300 | 19219 ft | 349 kts | 208° |
| 2026-05-05 19:13 | 46.91107 | 6.34632 | 18975 ft | 348 kts | 208° |
| 2026-05-05 19:13 | 46.88973 | 6.32973 | 18737 ft | 347 kts | 208° |
| 2026-05-05 19:14 | 46.86846 | 6.31323 | 18499 ft | 346 kts | 208° |
| 2026-05-05 19:14 | 46.84719 | 6.29677 | 18259 ft | 345 kts | 208° |
| 2026-05-05 19:14 | 46.82598 | 6.28040 | 18003 ft | 344 kts | 208° |
| 2026-05-05 19:14 | 46.80487 | 6.26412 | 17877 ft | 343 kts | 208° |
| 2026-05-05 19:15 | 46.78378 | 6.24782 | 17900 ft | 343 kts | 208° |
| 2026-05-05 19:15 | 46.76272 | 6.23150 | 17896 ft | 343 kts | 208° |
| 2026-05-05 19:15 | 46.74166 | 6.21517 | 17895 ft | 343 kts | 208° |
| 2026-05-05 19:15 | 46.72057 | 6.19892 | 17896 ft | 343 kts | 208° |
| 2026-05-05 19:16 | 46.69949 | 6.18272 | 17898 ft | 343 kts | 208° |
| 2026-05-05 19:16 | 46.67843 | 6.16656 | 17903 ft | 343 kts | 208° |
| 2026-05-05 19:16 | 46.66419 | 6.15565 | 17900 ft | 342 kts | 208° |
| 2026-05-05 19:16 | 46.64311 | 6.13947 | 17903 ft | 342 kts | 208° |
| 2026-05-05 19:17 | 46.62232 | 6.12348 | 17909 ft | 342 kts | 208° |
| 2026-05-05 19:17 | 46.60129 | 6.10726 | 17901 ft | 342 kts | 210° |
| 2026-05-05 19:17 | 46.58246 | 6.08649 | 17769 ft | 341 kts | 226° |
| 2026-05-05 19:17 | 46.56721 | 6.06014 | 17505 ft | 340 kts | 230° |
| 2026-05-05 19:18 | 46.55230 | 6.03352 | 17239 ft | 339 kts | 230° |
| 2026-05-05 19:18 | 46.53748 | 6.00692 | 16976 ft | 338 kts | 230° |
| 2026-05-05 19:18 | 46.52269 | 5.98040 | 16708 ft | 337 kts | 230° |
| 2026-05-05 19:18 | 46.50795 | 5.95401 | 16452 ft | 336 kts | 230° |
| 2026-05-05 19:19 | 46.49326 | 5.92775 | 16195 ft | 335 kts | 230° |
| 2026-05-05 19:19 | 46.47859 | 5.90157 | 15939 ft | 334 kts | 230° |
| 2026-05-05 19:19 | 46.46397 | 5.87551 | 15683 ft | 332 kts | 230° |
| 2026-05-05 19:19 | 46.44940 | 5.84957 | 15427 ft | 331 kts | 230° |
| 2026-05-05 19:20 | 46.43485 | 5.82370 | 15180 ft | 330 kts | 230° |
| 2026-05-05 19:20 | 46.42037 | 5.79798 | 14927 ft | 329 kts | 230° |
| 2026-05-05 19:20 | 46.40589 | 5.77232 | 14682 ft | 328 kts | 230° |
| 2026-05-05 19:20 | 46.39111 | 5.74728 | 14444 ft | 326 kts | 227° |
| 2026-05-05 19:21 | 46.37556 | 5.72337 | 14197 ft | 325 kts | 226° |
| 2026-05-05 19:21 | 46.35979 | 5.69995 | 13952 ft | 324 kts | 225° |
| 2026-05-05 19:21 | 46.34397 | 5.67679 | 13710 ft | 323 kts | 225° |
| 2026-05-05 19:21 | 46.32817 | 5.65371 | 13445 ft | 322 kts | 225° |
| 2026-05-05 19:22 | 46.31248 | 5.63071 | 13176 ft | 321 kts | 225° |
| 2026-05-05 19:22 | 46.29686 | 5.60775 | 12903 ft | 319 kts | 225° |
| 2026-05-05 19:22 | 46.28132 | 5.58488 | 12645 ft | 318 kts | 225° |
| 2026-05-05 19:22 | 46.26583 | 5.56203 | 12381 ft | 317 kts | 225° |
| 2026-05-05 19:23 | 46.25049 | 5.53940 | 11983 ft | 313 kts | 225° |
| 2026-05-05 19:23 | 46.23528 | 5.51698 | 11455 ft | 311 kts | 225° |
| 2026-05-05 19:23 | 46.22017 | 5.49475 | 10963 ft | 309 kts | 225° |
| 2026-05-05 19:23 | 46.20517 | 5.47269 | 10496 ft | 307 kts | 225° |
| 2026-05-05 19:24 | 46.19055 | 5.45118 | 10363 ft | 294 kts | 225° |
| 2026-05-05 19:24 | 46.17653 | 5.43054 | 10237 ft | 282 kts | 225° |
| 2026-05-05 19:24 | 46.16297 | 5.41066 | 10041 ft | 274 kts | 225° |
| 2026-05-05 19:24 | 46.14968 | 5.39120 | 9715 ft | 272 kts | 225° |
| 2026-05-05 19:25 | 46.13647 | 5.37182 | 9339 ft | 270 kts | 225° |
| 2026-05-05 19:25 | 46.12332 | 5.35250 | 8948 ft | 269 kts | 225° |
| 2026-05-05 19:25 | 46.11022 | 5.33331 | 8573 ft | 268 kts | 225° |
| 2026-05-05 19:25 | 46.09714 | 5.31419 | 8210 ft | 267 kts | 225° |
| 2026-05-05 19:26 | 46.08415 | 5.29522 | 7846 ft | 265 kts | 225° |
| 2026-05-05 19:26 | 46.07120 | 5.27634 | 7486 ft | 264 kts | 225° |
| 2026-05-05 19:26 | 46.05832 | 5.25756 | 7123 ft | 263 kts | 225° |
| 2026-05-05 19:26 | 46.04548 | 5.23884 | 6761 ft | 263 kts | 225° |
| 2026-05-05 19:27 | 46.03265 | 5.22017 | 6407 ft | 262 kts | 225° |
| 2026-05-05 19:27 | 46.01989 | 5.20160 | 6043 ft | 261 kts | 225° |
| 2026-05-05 19:27 | 46.00716 | 5.18304 | 5678 ft | 260 kts | 225° |
| 2026-05-05 19:27 | 45.99449 | 5.16460 | 5359 ft | 259 kts | 225° |
| 2026-05-05 19:28 | 45.98186 | 5.14626 | 4996 ft | 258 kts | 225° |
| 2026-05-05 19:28 | 45.96926 | 5.12799 | 4630 ft | 257 kts | 225° |
| 2026-05-05 19:28 | 45.95670 | 5.10979 | 4280 ft | 256 kts | 225° |
| 2026-05-05 19:28 | 45.94421 | 5.09169 | 3981 ft | 252 kts | 225° |
| 2026-05-05 19:29 | 45.93120 | 5.07549 | 3780 ft | 245 kts | 208° |
| 2026-05-05 19:29 | 45.91492 | 5.06990 | 3526 ft | 242 kts | 180° |
| 2026-05-05 19:29 | 45.89824 | 5.07172 | 3280 ft | 238 kts | 175° |
| 2026-05-05 19:29 | 45.88194 | 5.07390 | 3106 ft | 230 kts | 176° |
| 2026-05-05 19:30 | 45.86665 | 5.07582 | 2995 ft | 211 kts | 176° |
| 2026-05-05 19:30 | 45.85288 | 5.07751 | 3000 ft | 193 kts | 176° |
| 2026-05-05 19:30 | 45.83958 | 5.07912 | 2853 ft | 188 kts | 176° |
| 2026-05-05 19:30 | 45.82676 | 5.08068 | 2651 ft | 185 kts | 176° |
| 2026-05-05 19:31 | 45.81395 | 5.08224 | 2394 ft | 184 kts | 176° |
| 2026-05-05 19:31 | 45.80144 | 5.08377 | 2143 ft | 175 kts | 177° |
| 2026-05-05 19:31 | 45.78982 | 5.08519 | 1907 ft | 161 kts | 176° |
| 2026-05-05 19:31 | 45.77922 | 5.08646 | 1702 ft | 142 kts | 176° |
| 2026-05-05 19:32 | 45.76988 | 5.08760 | 1493 ft | 130 kts | 175° |
| 2026-05-05 19:32 | 45.76103 | 5.08868 | 1325 ft | 126 kts | 175° |
| 2026-05-05 19:32 | 45.75231 | 5.08974 | 1167 ft | 126 kts | 175° |
| 2026-05-05 19:32 | 45.74356 | 5.09081 | 1004 ft | 127 kts | 174° |
| 2026-05-05 19:33 | 45.73479 | 5.09192 | 833 ft | 126 kts | 174° |
| 2026-05-05 19:33 | 45.72676 | 5.09290 | 806 ft | 94 kts | 175° |
| 2026-05-05 19:33 | 45.72304 | 5.09334 | 815 ft | 20 kts | 179° |
| 2026-05-05 19:33 | 45.72162 | 5.09310 | 815 ft | 18 kts | 193° |
| 2026-05-05 19:34 | 45.72055 | 5.09254 | 817 ft | 15 kts | 205° |
| 2026-05-05 19:34 | 45.72001 | 5.09207 | 814 ft | 8 kts | 227° |
| 2026-05-05 19:34 | 45.71985 | 5.09122 | 811 ft | 5 kts | 264° |
| 2026-05-05 19:35 | 45.71982 | 5.09077 | 811 ft | 0 kts | 264° |
| 2026-05-05 19:35 | 45.71982 | 5.09072 | 811 ft | 2 kts | 264° |
| 2026-05-05 19:35 | 45.71980 | 5.09046 | 811 ft | 4 kts | 264° |
| 2026-05-05 19:35 | 45.71977 | 5.08998 | 811 ft | 6 kts | 264° |
| 2026-05-05 19:36 | 45.71971 | 5.08912 | 811 ft | 11 kts | 264° |
| 2026-05-05 19:36 | 45.71964 | 5.08811 | 811 ft | 8 kts | 264° |
| 2026-05-05 19:36 | 45.71957 | 5.08717 | 809 ft | 10 kts | 264° |
| 2026-05-05 19:36 | 45.71951 | 5.08633 | 806 ft | 8 kts | 265° |
| 2026-05-05 19:37 | 45.71945 | 5.08532 | 804 ft | 13 kts | 266° |
| 2026-05-05 19:37 | 45.71953 | 5.08392 | 800 ft | 15 kts | 283° |
| 2026-05-05 19:37 | 45.71976 | 5.08279 | 799 ft | 10 kts | 304° |
| 2026-05-05 19:37 | 45.72049 | 5.08263 | 797 ft | 12 kts | 16° |
| 2026-05-05 19:38 | 45.72130 | 5.08301 | 798 ft | 10 kts | 18° |
| 2026-05-05 19:38 | 45.72181 | 5.08319 | 798 ft | 8 kts | 4° |
| 2026-05-05 19:38 | 45.72239 | 5.08308 | 798 ft | 9 kts | 341° |
| 2026-05-05 19:38 | 45.72261 | 5.08257 | 797 ft | 4 kts | 265° |
| 2026-05-05 19:39 | 45.72261 | 5.08208 | 797 ft | 5 kts | 271° |
| 2026-05-05 19:39 | 45.72261 | 5.08193 | 797 ft | 0 kts | 271° |